Time;durP1;ratioP1;P1;durP2;ratioP2;P2;SDS_P1;SDS_P2;PMS_P1;PMS_P2;Temp;Humidity;BMP_temperature;BMP_pressure;BME280_temperature;BME280_humidity;BME280_pressure;Samples;Min_cycle;Max_cycle;Signal;HPM_P1;HPM_P2
2023/03/24 00:00:10;;;;;;;;;;;;;;;;;;4921775;29;20433;-96
2023/03/24 00:02:40;;;;;;;;;;;;;;;;;;4921745;29;19929;-96
2023/03/24 00:05:09;;;;;;;;;;;;;;;;;;4922308;29;19922;-95
2023/03/24 00:07:38;;;;;;;;;;;;;;;;;;4922627;29;19927;-96
2023/03/24 00:10:05;;;;;;;;;;;;;;;;;;4921568;29;19923;-96
2023/03/24 00:12:41;;;;;;;;;;;;;;;;;;4921401;29;19930;-95
2023/03/24 00:15:09;;;;;;;;;;;;;;;;;;4922242;29;19994;-96
2023/03/24 00:17:41;;;;;;;;;;;;;;;;;;4924906;28;19930;-96
2023/03/24 00:20:13;;;;;;;;;;;;;;;;;;4925116;29;19977;-95
2023/03/24 00:22:41;;;;;;;;;;;;;;;;;;4924548;29;19923;-96
2023/03/24 00:25:07;;;;;;;;;;;;;;;;;;4924565;28;19922;-96
2023/03/24 00:27:35;;;;;;;;;;;;;;;;;;4924486;29;20374;-94
2023/03/24 00:30:02;;;;;;;;;;;;;;;;;;4924850;29;20374;-94
2023/03/24 00:32:29;;;;;;;;;;;;;;;;;;4924284;29;19929;-94
2023/03/24 00:34:55;;;;;;;;;;;;;;;;;;4923900;28;19923;-94
2023/03/24 00:37:21;;;;;;;;;;;;;;;;;;4923456;29;19949;-94
2023/03/24 00:39:47;;;;;;;;;;;;;;;;;;4924264;29;20392;-94
2023/03/24 00:42:12;;;;;;;;;;;;;;;;;;4924184;29;19926;-94
2023/03/24 00:44:38;;;;;;;;;;;;;;;;;;4940339;29;19973;-93
2023/03/24 00:47:04;;;;;;;;;;;;;;;;;;4924247;29;20362;-93
2023/03/24 00:49:46;;;;;;;;;;;;;;;;;;4924019;29;20444;-94
2023/03/24 00:52:13;;;;;;;;;;;;;;;;;;4924100;29;20437;-94
2023/03/24 00:54:38;;;;;;;;;;;;;;;;;;4924100;29;19929;-94
2023/03/24 00:57:05;;;;;;;;;;;;;;;;;;4923871;29;20028;-94
2023/03/24 00:59:31;;;;;;;;;;;;;;;;;;4923663;29;20038;-93
2023/03/24 01:01:57;;;;;;;;;;;;;;;;;;4939599;29;20022;-94
2023/03/24 01:04:25;;;;;;;;;;;;;;;;;;4923713;29;19922;-94
2023/03/24 01:06:51;;;;;;;;;;;;;;;;;;4923612;29;19923;-92
2023/03/24 01:09:20;;;;;;;;;;;;;;;;;;4925529;29;19922;-93
2023/03/24 01:11:46;;;;;;;;;;;;;;;;;;4923453;29;19923;-93
2023/03/24 01:14:12;;;;;;;;;;;;;;;;;;4923918;29;19932;-95
2023/03/24 01:16:38;;;;;;;;;;;;;;;;;;4923790;29;19988;-93
2023/03/24 01:19:05;;;;;;;;;;;;;;;;;;4923269;29;19981;-95
2023/03/24 01:21:33;;;;;;;;;;;;;;;;;;4923944;29;20017;-95
2023/03/24 01:24:00;;;;;;;;;;;;;;;;;;4923521;29;19922;-94
2023/03/24 01:26:26;;;;;;;;;;;;;;;;;;4923803;29;19922;-95
2023/03/24 01:28:52;;;;;;;;;;;;;;;;;;4923735;29;19930;-94
2023/03/24 01:31:21;;;;;;;;;;;;;;;;;;4923437;29;20013;-95
2023/03/24 01:33:47;;;;;;;;;;;;;;;;;;4923553;29;19922;-94
2023/03/24 01:36:13;;;;;;;;;;;;;;;;;;4923194;29;19934;-94
2023/03/24 01:38:39;;;;;;;;;;;;;;;;;;4923493;29;19926;-93
2023/03/24 01:41:05;;;;;;;;;;;;;;;;;;4923891;29;19938;-93
2023/03/24 01:43:31;;;;;;;;;;;;;;;;;;4923347;29;19965;-94
2023/03/24 01:45:57;;;;;;;;;;;;;;;;;;4923028;29;20227;-94
2023/03/24 01:48:23;;;;;;;;;;;;;;;;;;4923485;28;19922;-92
2023/03/24 01:50:49;;;;;;;;;;;;;;;;;;4927618;29;19923;-94
2023/03/24 01:53:15;;;;;;;;;;;;;;;;;;4927447;29;19925;-92
2023/03/24 01:55:41;;;;;;;;;;;;;;;;;;4927194;29;19923;-94
2023/03/24 01:58:07;;;;;;;;;;;;;;;;;;4926364;29;19922;-92
2023/03/24 02:00:33;;;;;;;;;;;;;;;;;;4927094;29;20458;-93
2023/03/24 02:02:58;;;;;;;;;;;;;;;;;;4927225;29;20030;-94
2023/03/24 02:05:24;;;;;;;;;;;;;;;;;;4927076;29;20389;-93
2023/03/24 02:07:51;;;;;;;;;;;;;;;;;;4927222;29;19985;-93
2023/03/24 02:10:17;;;;;;;;;;;;;;;;;;4927638;29;19978;-93
2023/03/24 02:12:43;;;;;;;;;;;;;;;;;;4926931;29;19922;-94
2023/03/24 02:15:09;;;;;;;;;;;;;;;;;;4927172;29;19922;-94
2023/03/24 02:17:35;;;;;;;;;;;;;;;;;;4927465;28;20457;-95
2023/03/24 02:20:01;;;;;;;;;;;;;;;;;;4929252;29;19922;-94
2023/03/24 02:22:27;;;;;;;;;;;;;;;;;;4930421;29;19923;-95
2023/03/24 02:24:53;;;;;;;;;;;;;;;;;;4930199;28;20035;-96
2023/03/24 02:27:19;;;;;;;;;;;;;;;;;;4929245;29;20398;-94
2023/03/24 02:29:45;;;;;;;;;;;;;;;;;;4929028;29;19930;-95
2023/03/24 02:32:11;;;;;;;;;;;;;;;;;;4928692;29;19970;-95
2023/03/24 02:34:39;;;;;;;;;;;;;;;;;;4928873;29;19970;-96
2023/03/24 02:37:05;;;;;;;;;;;;;;;;;;4927906;29;20392;-96
2023/03/24 02:39:31;;;;;;;;;;;;;;;;;;4927107;29;20022;-96
2023/03/24 02:41:57;;;;;;;;;;;;;;;;;;4929376;29;20322;-94
2023/03/24 02:44:23;;;;;;;;;;;;;;;;;;4928717;29;20424;-95
2023/03/24 02:46:49;;;;;;;;;;;;;;;;;;4927785;29;20012;-95
2023/03/24 02:49:15;;;;;;;;;;;;;;;;;;4927414;29;19923;-93
2023/03/24 02:51:41;;;;;;;;;;;;;;;;;;4926023;29;20054;-93
2023/03/24 02:54:07;;;;;;;;;;;;;;;;;;4926300;29;19922;-93
2023/03/24 02:56:33;;;;;;;;;;;;;;;;;;4926201;29;19937;-94
2023/03/24 02:58:59;;;;;;;;;;;;;;;;;;4925922;29;19922;-95
2023/03/24 03:01:30;;;;;;;;;;;;;;;;;;4925255;29;19930;-96
2023/03/24 03:03:56;;;;;;;;;;;;;;;;;;4926290;29;19922;-95
2023/03/24 03:06:22;;;;;;;;;;;;;;;;;;4925956;29;20275;-95
2023/03/24 03:08:48;;;;;;;;;;;;;;;;;;4925876;29;20017;-93
2023/03/24 03:11:16;;;;;;;;;;;;;;;;;;4925630;29;19977;-94
2023/03/24 03:13:42;;;;;;;;;;;;;;;;;;4925602;29;19986;-95
2023/03/24 03:16:08;;;;;;;;;;;;;;;;;;4925392;29;19981;-94
2023/03/24 03:18:34;;;;;;;;;;;;;;;;;;4925472;29;19949;-95
2023/03/24 03:21:00;;;;;;;;;;;;;;;;;;4924972;29;20394;-93
2023/03/24 03:23:27;;;;;;;;;;;;;;;;;;4925466;29;19930;-95
2023/03/24 03:25:53;;;;;;;;;;;;;;;;;;4925180;29;19922;-95
2023/03/24 03:28:20;;;;;;;;;;;;;;;;;;4925714;29;19937;-94
2023/03/24 03:30:46;;;;;;;;;;;;;;;;;;4925655;29;19927;-95
2023/03/24 03:33:12;;;;;;;;;;;;;;;;;;4925038;29;19922;-94
2023/03/24 03:35:38;;;;;;;;;;;;;;;;;;4925229;29;20026;-96
2023/03/24 03:38:05;;;;;;;;;;;;;;;;;;4925207;29;19930;-94
2023/03/24 03:40:31;;;;;;;;;;;;;;;;;;4925129;29;19926;-92
2023/03/24 03:42:56;;;;;;;;;;;;;;;;;;4925175;29;20013;-94
2023/03/24 03:45:22;;;;;;;;;;;;;;;;;;4925452;29;19966;-93
2023/03/24 03:47:48;;;;;;;;;;;;;;;;;;4925261;29;19976;-92
2023/03/24 03:50:16;;;;;;;;;;;;;;;;;;4925403;29;19929;-94
2023/03/24 03:52:43;;;;;;;;;;;;;;;;;;4925118;29;19922;-93
2023/03/24 03:55:09;;;;;;;;;;;;;;;;;;4924928;29;19962;-93
2023/03/24 03:57:35;;;;;;;;;;;;;;;;;;4924810;29;20019;-93
2023/03/24 04:00:06;;;;;;;;;;;;;;;;;;4939810;29;19945;-93
2023/03/24 04:02:32;;;;;;;;;;;;;;;;;;4940267;29;20366;-92
2023/03/24 04:04:58;;;;;;;;;;;;;;;;;;4925120;28;19942;-91
2023/03/24 04:07:27;;;;;;;;;;;;;;;;;;4924737;29;19931;-93
2023/03/24 04:09:53;;;;;;;;;;;;;;;;;;4924973;29;20341;-93
2023/03/24 04:12:19;;;;;;;;;;;;;;;;;;4923492;29;19929;-94
2023/03/24 04:14:45;;;;;;;;;;;;;;;;;;4924332;28;19922;-94
2023/03/24 04:17:11;;;;;;;;;;;;;;;;;;4924679;29;20027;-94
2023/03/24 04:19:37;;;;;;;;;;;;;;;;;;4924491;29;19927;-92
2023/03/24 04:22:03;;;;;;;;;;;;;;;;;;4924465;29;19922;-95
2023/03/24 04:24:31;;;;;;;;;;;;;;;;;;4924744;29;19970;-92
2023/03/24 04:27:00;;;;;;;;;;;;;;;;;;4924648;29;20028;-94
2023/03/24 04:29:26;;;;;;;;;;;;;;;;;;4924260;29;20036;-95
2023/03/24 04:31:57;;;;;;;;;;;;;;;;;;4940303;29;19923;-93
2023/03/24 04:34:24;;;;;;;;;;;;;;;;;;4924154;29;19927;-94
2023/03/24 04:36:53;;;;;;;;;;;;;;;;;;4924162;29;20005;-94
2023/03/24 04:39:24;;;;;;;;;;;;;;;;;;4924750;29;19910;-94
2023/03/24 04:41:51;;;;;;;;;;;;;;;;;;4924300;29;20036;-95
2023/03/24 04:44:20;;;;;;;;;;;;;;;;;;4924322;29;20025;-94
2023/03/24 04:46:46;;;;;;;;;;;;;;;;;;4923636;29;19927;-94
2023/03/24 04:49:12;;;;;;;;;;;;;;;;;;4923768;29;19985;-93
2023/03/24 04:51:38;;;;;;;;;;;;;;;;;;4924120;29;20192;-93
2023/03/24 04:54:04;;;;;;;;;;;;;;;;;;4923940;29;19980;-94
2023/03/24 04:56:30;;;;;;;;;;;;;;;;;;4923329;29;19926;-94
2023/03/24 04:58:57;;;;;;;;;;;;;;;;;;4923694;29;19922;-93
2023/03/24 05:01:24;;;;;;;;;;;;;;;;;;4924020;29;20338;-93
2023/03/24 05:03:51;;;;;;;;;;;;;;;;;;4956313;28;19938;-93
2023/03/24 05:06:17;;;;;;;;;;;;;;;;;;4923783;29;19923;-92
2023/03/24 05:08:43;;;;;;;;;;;;;;;;;;4939113;29;19949;-93
2023/03/24 05:11:10;;;;;;;;;;;;;;;;;;4923678;29;20305;-94
2023/03/24 05:13:36;;;;;;;;;;;;;;;;;;4923283;29;19926;-92
2023/03/24 05:16:01;;;;;;;;;;;;;;;;;;4923217;29;19926;-94
2023/03/24 05:18:27;;;;;;;;;;;;;;;;;;4922929;29;19939;-92
2023/03/24 05:20:53;;;;;;;;;;;;;;;;;;4923477;29;19929;-94
2023/03/24 05:23:19;;;;;;;;;;;;;;;;;;4923705;28;19923;-93
2023/03/24 05:25:45;;;;;;;;;;;;;;;;;;4923752;29;19923;-91
2023/03/24 05:28:11;;;;;;;;;;;;;;;;;;4922973;29;19978;-95
2023/03/24 05:30:37;;;;;;;;;;;;;;;;;;4923398;29;19938;-95
2023/03/24 05:33:03;;;;;;;;;;;;;;;;;;4923200;29;19926;-94
2023/03/24 05:35:29;;;;;;;;;;;;;;;;;;4923000;29;20016;-92
2023/03/24 05:37:55;;;;;;;;;;;;;;;;;;4923156;29;19926;-93
2023/03/24 05:40:21;;;;;;;;;;;;;;;;;;4922951;29;19933;-93
2023/03/24 05:42:47;;;;;;;;;;;;;;;;;;4923456;29;20013;-94
2023/03/24 05:45:13;;;;;;;;;;;;;;;;;;4923019;29;19923;-93
2023/03/24 05:47:39;;;;;;;;;;;;;;;;;;4923275;29;19929;-94
2023/03/24 05:50:05;;;;;;;;;;;;;;;;;;4923404;29;20006;-95
2023/03/24 05:52:31;;;;;;;;;;;;;;;;;;4923211;29;19922;-92
2023/03/24 05:54:57;;;;;;;;;;;;;;;;;;4923013;28;20641;-94
2023/03/24 05:57:23;;;;;;;;;;;;;;;;;;4922932;29;20278;-92
2023/03/24 05:59:51;;;;;;;;;;;;;;;;;;4922714;29;19978;-93
2023/03/24 06:02:16;;;;;;;;;;;;;;;;;;4938793;29;19929;-93
2023/03/24 06:04:45;;;;;;;;;;;;;;;;;;4922905;29;19922;-93
2023/03/24 06:07:10;;;;;;;;;;;;;;;;;;4922435;29;20290;-92
2023/03/24 06:09:36;;;;;;;;;;;;;;;;;;4922904;29;19922;-91
2023/03/24 06:12:05;;;;;;;;;;;;;;;;;;4923458;29;19946;-94
2023/03/24 06:14:37;;;;;;;;;;;;;;;;;;4939010;29;19922;-93
2023/03/24 06:17:03;;;;;;;;;;;;;;;;;;4922984;29;19930;-93
2023/03/24 06:19:32;;;;;;;;;;;;;;;;;;4919640;29;19951;-94
2023/03/24 06:22:01;;;;;;;;;;;;;;;;;;4920049;29;20378;-93
2023/03/24 06:24:27;;;;;;;;;;;;;;;;;;4919862;29;19923;-93
2023/03/24 06:27:00;;;;;;;;;;;;;;;;;;4919782;29;20350;-94
2023/03/24 06:29:26;;;;;;;;;;;;;;;;;;4919904;29;19930;-92
2023/03/24 06:31:52;;;;;;;;;;;;;;;;;;4919568;29;19923;-92
2023/03/24 06:34:18;;;;;;;;;;;;;;;;;;4919090;29;19923;-93
2023/03/24 06:36:44;;;;;;;;;;;;;;;;;;4921685;29;20279;-93
2023/03/24 06:39:10;;;;;;;;;;;;;;;;;;4923256;29;19923;-93
2023/03/24 06:41:36;;;;;;;;;;;;;;;;;;4922830;29;19923;-92
2023/03/24 06:44:02;;;;;;;;;;;;;;;;;;4923050;29;19923;-93
2023/03/24 06:46:28;;;;;;;;;;;;;;;;;;4939501;29;19933;-93
2023/03/24 06:48:54;;;;;;;;;;;;;;;;;;4923221;29;19929;-93
2023/03/24 06:51:20;;;;;;;;;;;;;;;;;;4922542;29;20398;-93
2023/03/24 06:53:46;;;;;;;;;;;;;;;;;;4938691;29;19982;-94
2023/03/24 06:56:19;;;;;;;;;;;;;;;;;;4922824;29;19934;-94
2023/03/24 06:58:45;;;;;;;;;;;;;;;;;;4922923;29;20014;-94
2023/03/24 07:01:11;;;;;;;;;;;;;;;;;;4922969;29;19985;-95
2023/03/24 07:03:37;;;;;;;;;;;;;;;;;;4922731;29;19923;-94
2023/03/24 07:06:04;;;;;;;;;;;;;;;;;;4922420;29;19955;-93
2023/03/24 07:08:30;;;;;;;;;;;;;;;;;;4923231;29;20291;-92
2023/03/24 07:10:56;;;;;;;;;;;;;;;;;;4922742;29;20017;-89
2023/03/24 07:13:22;;;;;;;;;;;;;;;;;;4937580;29;19923;-93
2023/03/24 07:18:24;;;;;;;;;;;;;;;;;;5395175;23;19926;-92
2023/03/24 07:20:50;;;;;;;;;;;;;;;;;;4924827;29;19922;-89
2023/03/24 07:23:16;;;;;;;;;;;;;;;;;;4925264;29;19926;-91
2023/03/24 07:25:43;;;;;;;;;;;;;;;;;;4917352;29;19922;-91
2023/03/24 07:28:09;;;;;;;;;;;;;;;;;;4906006;29;19986;-93
2023/03/24 07:30:35;;;;;;;;;;;;;;;;;;4905816;29;19996;-91
2023/03/24 07:33:01;;;;;;;;;;;;;;;;;;4905972;29;19945;-90
2023/03/24 07:35:27;;;;;;;;;;;;;;;;;;4905393;29;19922;-92
2023/03/24 07:37:53;;;;;;;;;;;;;;;;;;4905645;29;19953;-90
2023/03/24 07:40:20;;;;;;;;;;;;;;;;;;4905685;29;19951;-92
2023/03/24 07:42:46;;;;;;;;;;;;;;;;;;4906142;29;19930;-91
2023/03/24 07:45:12;;;;;;;;;;;;;;;;;;4905742;29;19923;-93
2023/03/24 07:47:38;;;;;;;;;;;;;;;;;;4905896;29;19922;-91
2023/03/24 07:50:08;;;;;;;;;;;;;;;;;;4906127;29;19938;-93
2023/03/24 07:52:34;;;;;;;;;;;;;;;;;;4921324;29;19923;-91
2023/03/24 07:55:00;;;;;;;;;;;;;;;;;;4905470;29;19923;-91
2023/03/24 07:57:41;;;;;;;;;;;;;;;;;;4904956;29;19927;-92
2023/03/24 08:00:23;;;;;;;;;;;;;;;;;;4921448;29;19923;-91
2023/03/24 08:02:50;;;;;;;;;;;;;;;;;;4905413;29;19922;-90
2023/03/24 08:05:21;;;;;;;;;;;;;;;;;;4904850;29;19930;-92
2023/03/24 08:07:52;;;;;;;;;;;;;;;;;;4920996;29;20438;-91
2023/03/24 08:10:19;;;;;;;;;;;;;;;;;;4904560;29;20013;-92
2023/03/24 08:12:48;;;;;;;;;;;;;;;;;;4905261;29;19930;-90
2023/03/24 08:15:16;;;;;;;;;;;;;;;;;;4920381;29;19923;-89
2023/03/24 08:17:42;;;;;;;;;;;;;;;;;;4903926;29;20375;-86
2023/03/24 08:20:10;;;;;;;;;;;;;;;;;;4920019;29;19923;-89
2023/03/24 08:22:38;;;;;;;;;;;;;;;;;;4904871;29;19951;-89
2023/03/24 08:25:04;;;;;;;;;;;;;;;;;;4905158;29;20375;-89
2023/03/24 08:27:30;;;;;;;;;;;;;;;;;;4904271;29;19923;-89
2023/03/24 08:29:56;;;;;;;;;;;;;;;;;;4903794;29;19923;-89
2023/03/24 08:32:22;;;;;;;;;;;;;;;;;;4904225;29;20014;-90
2023/03/24 08:34:48;;;;;;;;;;;;;;;;;;4904090;29;20005;-89
2023/03/24 08:37:14;;;;;;;;;;;;;;;;;;4903668;29;20346;-90
2023/03/24 08:39:40;;;;;;;;;;;;;;;;;;4903901;29;20283;-88
2023/03/24 08:42:06;;;;;;;;;;;;;;;;;;4903717;29;19942;-89
2023/03/24 08:44:31;;;;;;;;;;;;;;;;;;4919420;29;19922;-89
2023/03/24 08:46:57;;;;;;;;;;;;;;;;;;4903504;29;19922;-89
2023/03/24 08:49:23;;;;;;;;;;;;;;;;;;4903735;29;19927;-89
2023/03/24 08:51:50;;;;;;;;;;;;;;;;;;4903422;29;19923;-89
2023/03/24 08:54:16;;;;;;;;;;;;;;;;;;4903659;29;19970;-89
2023/03/24 08:56:45;;;;;;;;;;;;;;;;;;4903831;29;19926;-89
2023/03/24 08:59:11;;;;;;;;;;;;;;;;;;4903355;29;19974;-89
2023/03/24 09:01:37;;;;;;;;;;;;;;;;;;4903305;29;19955;-91
2023/03/24 09:04:03;;;;;;;;;;;;;;;;;;4903338;29;19926;-89
2023/03/24 09:06:29;;;;;;;;;;;;;;;;;;4918778;29;19984;-91
2023/03/24 09:08:56;;;;;;;;;;;;;;;;;;4903532;29;19978;-90
2023/03/24 09:11:22;;;;;;;;;;;;;;;;;;4903384;29;19923;-88
2023/03/24 09:13:48;;;;;;;;;;;;;;;;;;4903186;29;19923;-93
2023/03/24 09:16:17;;;;;;;;;;;;;;;;;;4903333;29;19942;-93
2023/03/24 09:18:46;;;;;;;;;;;;;;;;;;4903546;29;19981;-92
2023/03/24 09:21:12;;;;;;;;;;;;;;;;;;4903809;29;19930;-91
2023/03/24 09:23:39;;;;;;;;;;;;;;;;;;4903802;29;19922;-94
2023/03/24 09:26:06;;;;;;;;;;;;;;;;;;4903900;29;20005;-90
2023/03/24 09:28:32;;;;;;;;;;;;;;;;;;4904248;29;19929;-93
2023/03/24 09:31:04;;;;;;;;;;;;;;;;;;4903813;29;19923;-94
2023/03/24 09:33:30;;;;;;;;;;;;;;;;;;4903449;29;20303;-92
2023/03/24 09:35:59;;;;;;;;;;;;;;;;;;4903556;29;20294;-92
2023/03/24 09:38:28;;;;;;;;;;;;;;;;;;4909430;29;19922;-92
2023/03/24 09:40:56;;;;;;;;;;;;;;;;;;4921936;29;19922;-92
2023/03/24 09:43:23;;;;;;;;;;;;;;;;;;4937920;29;20444;-91
2023/03/24 09:45:49;;;;;;;;;;;;;;;;;;4921488;29;20208;-90
2023/03/24 09:48:15;;;;;;;;;;;;;;;;;;4922178;29;20021;-90
2023/03/24 09:50:44;;;;;;;;;;;;;;;;;;4936548;29;19978;-88
2023/03/24 09:53:10;;;;;;;;;;;;;;;;;;4921427;29;19930;-89
2023/03/24 09:55:39;;;;;;;;;;;;;;;;;;4937289;29;19923;-90
2023/03/24 09:58:08;;;;;;;;;;;;;;;;;;4920805;29;19933;-91
2023/03/24 10:00:34;;;;;;;;;;;;;;;;;;4937084;29;19929;-92
2023/03/24 10:03:21;;;;;;;;;;;;;;;;;;4944358;29;19923;-93
2023/03/24 10:06:31;;;;;;;;;;;;;;;;;;4915804;29;19922;-92
2023/03/24 10:09:01;;;;;;;;;;;;;;;;;;4925772;29;19927;-91
2023/03/24 10:11:27;;;;;;;;;;;;;;;;;;4920248;29;19922;-90
2023/03/24 10:13:53;;;;;;;;;;;;;;;;;;4921567;29;19934;-90
2023/03/24 10:16:28;;;;;;;;;;;;;;;;;;4921086;29;19927;-94
2023/03/24 10:18:55;;;;;;;;;;;;;;;;;;4921052;29;19973;-93
2023/03/24 10:21:21;;;;;;;;;;;;;;;;;;4921991;29;19923;-91
2023/03/24 10:23:47;;;;;;;;;;;;;;;;;;4922383;29;19969;-91
2023/03/24 10:26:16;;;;;;;;;;;;;;;;;;4921583;29;20017;-91
2023/03/24 10:29:03;;;;;;;;;;;;;;;;;;4939722;29;19981;-91
2023/03/24 10:32:01;;;;;;;;;;;;;;;;;;4939288;29;19927;-92
2023/03/24 10:34:28;;;;;;;;;;;;;;;;;;4922243;29;20382;-91
2023/03/24 10:36:54;;;;;;;;;;;;;;;;;;4922442;29;19927;-94
2023/03/24 10:39:20;;;;;;;;;;;;;;;;;;4923948;29;19929;-93
2023/03/24 10:41:46;;;;;;;;;;;;;;;;;;4923952;29;19923;-95
2023/03/24 10:44:12;;;;;;;;;;;;;;;;;;4923139;29;19927;-93
2023/03/24 10:46:38;;;;;;;;;;;;;;;;;;4923086;29;19926;-93
2023/03/24 10:49:04;;;;;;;;;;;;;;;;;;4922748;29;19923;-89
2023/03/24 10:51:30;;;;;;;;;;;;;;;;;;4924554;29;19922;-93
2023/03/24 10:53:56;;;;;;;;;;;;;;;;;;4921573;29;19923;-90
2023/03/24 10:56:22;;;;;;;;;;;;;;;;;;4921345;29;19955;-93
2023/03/24 10:59:14;;;;;;;;;;;;;;;;;;4937568;29;19960;-91
2023/03/24 11:01:40;;;;;;;;;;;;;;;;;;4925215;29;19924;-92
2023/03/24 11:04:12;;;;;;;;;;;;;;;;;;4923252;29;20385;-92
2023/03/24 11:06:39;;;;;;;;;;;;;;;;;;4938157;29;19952;-90
2023/03/24 11:09:04;;;;;;;;;;;;;;;;;;4921073;29;19927;-91
2023/03/24 11:11:30;;;;;;;;;;;;;;;;;;4921028;29;20463;-91
2023/03/24 11:14:03;;;;;;;;;;;;;;;;;;4936806;29;19923;-91
2023/03/24 11:16:32;;;;;;;;;;;;;;;;;;4936750;29;19981;-92
2023/03/24 11:18:58;;;;;;;;;;;;;;;;;;4936386;29;19927;-93
2023/03/24 11:21:25;;;;;;;;;;;;;;;;;;4920248;29;19966;-91
2023/03/24 11:23:51;;;;;;;;;;;;;;;;;;4920753;29;19978;-90
2023/03/24 11:26:18;;;;;;;;;;;;;;;;;;4920113;29;19923;-91
2023/03/24 11:28:44;;;;;;;;;;;;;;;;;;4921043;29;20289;-91
2023/03/24 11:31:10;;;;;;;;;;;;;;;;;;4921237;29;19929;-93
2023/03/24 11:33:36;;;;;;;;;;;;;;;;;;4937033;29;19978;-92
2023/03/24 11:36:04;;;;;;;;;;;;;;;;;;4937349;29;19930;-92
2023/03/24 11:38:30;;;;;;;;;;;;;;;;;;4921891;29;20286;-95
2023/03/24 11:41:01;;;;;;;;;;;;;;;;;;4921884;29;20329;-95
2023/03/24 11:43:27;;;;;;;;;;;;;;;;;;4922395;29;19962;-93
2023/03/24 11:45:53;;;;;;;;;;;;;;;;;;4921286;29;19986;-94
2023/03/24 11:48:19;;;;;;;;;;;;;;;;;;4921767;29;19923;-92
2023/03/24 11:50:45;;;;;;;;;;;;;;;;;;4921446;29;20022;-94
2023/03/24 12:14:28;;;;;;;;;;;;;;;;;;5084523;23;19926;-92
2023/03/24 12:16:54;;;;;;;;;;;;;;;;;;4907186;29;19934;-93
2023/03/24 12:19:20;;;;;;;;;;;;;;;;;;4904964;29;19967;-91
2023/03/24 12:21:46;;;;;;;;;;;;;;;;;;4905007;29;19923;-91
2023/03/24 12:24:12;;;;;;;;;;;;;;;;;;4905509;29;19927;-93
2023/03/24 12:26:38;;;;;;;;;;;;;;;;;;4905182;29;19923;-92
2023/03/24 12:29:04;;;;;;;;;;;;;;;;;;4905399;29;19923;-93
2023/03/24 12:31:30;;;;;;;;;;;;;;;;;;4905308;29;20028;-92
2023/03/24 12:33:57;;;;;;;;;;;;;;;;;;4903867;29;19957;-94
2023/03/24 12:42:00;;;;;;;;;;;;;;;;;;4934886;29;19927;-91
2023/03/24 12:44:26;;;;;;;;;;;;;;;;;;4919238;29;19923;-92
2023/03/24 12:46:53;;;;;;;;;;;;;;;;;;4920283;29;19978;-92
2023/03/24 12:49:32;;;;;;;;;;;;;;;;;;4919838;29;19923;-93
2023/03/24 12:51:58;;;;;;;;;;;;;;;;;;4905880;29;19978;-94
2023/03/24 12:54:24;;;;;;;;;;;;;;;;;;4920098;29;19923;-94
2023/03/24 12:56:50;;;;;;;;;;;;;;;;;;4920143;29;19927;-95
2023/03/24 12:59:16;;;;;;;;;;;;;;;;;;4923896;29;19922;-94
2023/03/24 13:01:42;;;;;;;;;;;;;;;;;;4920696;29;19929;-93
2023/03/24 13:04:08;;;;;;;;;;;;;;;;;;4939662;29;20002;-95
2023/03/24 13:06:34;;;;;;;;;;;;;;;;;;4922947;29;20050;-94
2023/03/24 13:09:00;;;;;;;;;;;;;;;;;;4920331;29;19923;-94
2023/03/24 13:11:29;;;;;;;;;;;;;;;;;;4920197;29;19922;-96
2023/03/24 13:13:55;;;;;;;;;;;;;;;;;;4920512;29;19922;-94
2023/03/24 13:16:21;;;;;;;;;;;;;;;;;;4923125;29;19930;-95
2023/03/24 13:21:36;;;;;;;;;;;;;;;;;;4956565;29;19927;-92
2023/03/24 13:24:19;;;;;;;;;;;;;;;;;;4939847;29;19922;-96
2023/03/24 13:26:46;;;;;;;;;;;;;;;;;;4922736;29;19922;-94
2023/03/24 13:29:12;;;;;;;;;;;;;;;;;;4924605;29;19922;-93
2023/03/24 13:31:38;;;;;;;;;;;;;;;;;;4924588;29;20013;-96
2023/03/24 13:34:04;;;;;;;;;;;;;;;;;;4924500;29;20028;-96
2023/03/24 13:36:30;;;;;;;;;;;;;;;;;;4924477;29;19927;-96
2023/03/24 13:38:56;;;;;;;;;;;;;;;;;;4924075;29;19929;-96
2023/03/24 13:41:30;;;;;;;;;;;;;;;;;;4924649;29;19926;-96
2023/03/24 13:43:57;;;;;;;;;;;;;;;;;;4924339;29;19938;-96
2023/03/24 13:46:23;;;;;;;;;;;;;;;;;;4922623;29;19945;-96
2023/03/24 13:48:54;;;;;;;;;;;;;;;;;;4937065;29;20009;-91
2023/03/24 13:51:20;;;;;;;;;;;;;;;;;;4924048;29;19973;-96
2023/03/24 13:53:46;;;;;;;;;;;;;;;;;;4922530;29;19923;-94
2023/03/24 13:56:12;;;;;;;;;;;;;;;;;;4919089;29;19978;-92
2023/03/24 13:58:38;;;;;;;;;;;;;;;;;;4919648;29;20072;-91
2023/03/24 14:01:04;;;;;;;;;;;;;;;;;;4919563;29;20073;-93
2023/03/24 14:06:30;;;;;;;;;;;;;;;;;;4929964;29;19923;-95
2023/03/24 14:08:56;;;;;;;;;;;;;;;;;;4920168;29;19930;-94
2023/03/24 14:11:22;;;;;;;;;;;;;;;;;;4919577;29;19922;-93
2023/03/24 14:13:48;;;;;;;;;;;;;;;;;;4919304;29;20379;-92
2023/03/24 14:16:14;;;;;;;;;;;;;;;;;;4919539;29;20385;-93
2023/03/24 14:18:40;;;;;;;;;;;;;;;;;;4919638;29;19970;-93
2023/03/24 14:21:06;;;;;;;;;;;;;;;;;;4918981;29;19927;-92
2023/03/24 14:23:32;;;;;;;;;;;;;;;;;;4919318;29;19923;-91
2023/03/24 14:25:58;;;;;;;;;;;;;;;;;;4935257;29;20291;-92
2023/03/24 14:28:25;;;;;;;;;;;;;;;;;;4918789;29;19930;-90
2023/03/24 14:30:52;;;;;;;;;;;;;;;;;;4918393;29;19930;-92
2023/03/24 14:33:18;;;;;;;;;;;;;;;;;;4918918;29;19923;-93
2023/03/24 14:35:45;;;;;;;;;;;;;;;;;;4918661;29;19934;-91
2023/03/24 14:38:11;;;;;;;;;;;;;;;;;;4919203;29;19960;-91
2023/03/24 14:40:36;;;;;;;;;;;;;;;;;;4921143;28;20283;-92
2023/03/24 14:43:02;;;;;;;;;;;;;;;;;;4922134;29;20342;-92
2023/03/24 14:45:30;;;;;;;;;;;;;;;;;;4921933;29;19929;-93
2023/03/24 14:47:59;;;;;;;;;;;;;;;;;;4938239;29;20018;-92
2023/03/24 14:50:26;;;;;;;;;;;;;;;;;;4922298;29;19973;-93
2023/03/24 14:52:54;;;;;;;;;;;;;;;;;;4938741;29;19982;-94
2023/03/24 14:55:20;;;;;;;;;;;;;;;;;;4923742;29;19922;-90
2023/03/24 14:57:52;;;;;;;;;;;;;;;;;;4924112;29;20025;-92
2023/03/24 15:00:19;;;;;;;;;;;;;;;;;;4925781;29;19922;-93
2023/03/24 15:02:49;;;;;;;;;;;;;;;;;;4941580;29;20084;-91
2023/03/24 15:05:18;;;;;;;;;;;;;;;;;;4925184;29;19922;-92
2023/03/24 15:07:47;;;;;;;;;;;;;;;;;;4957629;29;19985;-92
2023/03/24 15:10:18;;;;;;;;;;;;;;;;;;4940951;29;19926;-91
2023/03/24 15:13:09;;;;;;;;;;;;;;;;;;4957893;29;19981;-90
2023/03/24 15:15:36;;;;;;;;;;;;;;;;;;4940717;29;19922;-90
2023/03/24 15:18:02;;;;;;;;;;;;;;;;;;4924611;29;19926;-93
2023/03/24 15:20:33;;;;;;;;;;;;;;;;;;4941170;29;19926;-92
2023/03/24 15:23:02;;;;;;;;;;;;;;;;;;4925115;29;19933;-92
2023/03/24 15:25:29;;;;;;;;;;;;;;;;;;4924700;29;19922;-91
2023/03/24 15:27:59;;;;;;;;;;;;;;;;;;4924578;29;19922;-95
2023/03/24 15:30:28;;;;;;;;;;;;;;;;;;4958178;29;19931;-92
2023/03/24 15:32:57;;;;;;;;;;;;;;;;;;4924682;29;19926;-94
2023/03/24 15:35:23;;;;;;;;;;;;;;;;;;4940051;29;19922;-92
2023/03/24 15:37:51;;;;;;;;;;;;;;;;;;4924569;29;19973;-93
2023/03/24 15:40:17;;;;;;;;;;;;;;;;;;4924609;29;20048;-93
2023/03/24 15:42:46;;;;;;;;;;;;;;;;;;4925463;29;19998;-93
2023/03/24 15:45:12;;;;;;;;;;;;;;;;;;4925347;29;20347;-92
2023/03/24 15:47:38;;;;;;;;;;;;;;;;;;4924952;29;20005;-92
2023/03/24 15:50:13;;;;;;;;;;;;;;;;;;4925015;29;19981;-94
2023/03/24 15:52:40;;;;;;;;;;;;;;;;;;4924627;29;19933;-91
2023/03/24 15:55:06;;;;;;;;;;;;;;;;;;4924299;28;20053;-89
2023/03/24 15:57:32;;;;;;;;;;;;;;;;;;4922506;29;20302;-88
2023/03/24 15:59:58;;;;;;;;;;;;;;;;;;4938189;29;20327;-88
2023/03/24 16:02:24;;;;;;;;;;;;;;;;;;4922158;29;19922;-88
2023/03/24 16:04:50;;;;;;;;;;;;;;;;;;4922497;28;19965;-93
2023/03/24 16:07:22;;;;;;;;;;;;;;;;;;4923104;28;19930;-90
2023/03/24 16:09:49;;;;;;;;;;;;;;;;;;4922495;29;20016;-92
2023/03/24 16:12:17;;;;;;;;;;;;;;;;;;4923027;29;19969;-93
2023/03/24 16:14:43;;;;;;;;;;;;;;;;;;4923276;29;20235;-90
2023/03/24 16:17:09;;;;;;;;;;;;;;;;;;4922935;29;20013;-90
2023/03/24 16:19:36;;;;;;;;;;;;;;;;;;4922860;29;19926;-89
2023/03/24 16:22:02;;;;;;;;;;;;;;;;;;4922301;29;19922;-91
2023/03/24 16:24:34;;;;;;;;;;;;;;;;;;4925501;29;19922;-92
2023/03/24 16:27:00;;;;;;;;;;;;;;;;;;4923252;29;19926;-93
2023/03/24 16:29:26;;;;;;;;;;;;;;;;;;4923572;29;19929;-93
2023/03/24 16:31:52;;;;;;;;;;;;;;;;;;4922582;29;19922;-90
2023/03/24 16:34:21;;;;;;;;;;;;;;;;;;4938598;29;19974;-89
2023/03/24 16:36:47;;;;;;;;;;;;;;;;;;4922289;29;20374;-90
2023/03/24 16:39:14;;;;;;;;;;;;;;;;;;4922421;29;20021;-92
2023/03/24 16:41:40;;;;;;;;;;;;;;;;;;4921652;29;19937;-90
2023/03/24 16:44:06;;;;;;;;;;;;;;;;;;4939065;29;19923;-92
2023/03/24 16:46:33;;;;;;;;;;;;;;;;;;4938433;29;19985;-91
2023/03/24 16:48:59;;;;;;;;;;;;;;;;;;4922195;29;19930;-91
2023/03/24 16:51:26;;;;;;;;;;;;;;;;;;4922527;29;19922;-92
2023/03/24 16:53:53;;;;;;;;;;;;;;;;;;4922630;29;19926;-91
2023/03/24 16:56:20;;;;;;;;;;;;;;;;;;4922125;29;19929;-92
2023/03/24 16:58:46;;;;;;;;;;;;;;;;;;4922275;29;20342;-92
2023/03/24 17:01:13;;;;;;;;;;;;;;;;;;4923222;29;19977;-91
2023/03/24 17:03:56;;;;;;;;;;;;;;;;;;4941569;29;19910;-91
2023/03/24 17:06:27;;;;;;;;;;;;;;;;;;4923110;29;20437;-92
2023/03/24 17:08:54;;;;;;;;;;;;;;;;;;4923508;29;20270;-93
2023/03/24 17:11:23;;;;;;;;;;;;;;;;;;4938666;29;19928;-92
2023/03/24 17:14:07;;;;;;;;;;;;;;;;;;4940404;29;19922;-91
2023/03/24 17:16:37;;;;;;;;;;;;;;;;;;4938183;29;20370;-92
2023/03/24 17:19:03;;;;;;;;;;;;;;;;;;4922329;28;19995;-92
2023/03/24 17:21:29;;;;;;;;;;;;;;;;;;4922609;29;19922;-92